sensor_id;sensor_type;location;lat;lon;timestamp;P1;durP1;ratioP1;P2;durP2;ratioP2
12896;SDS011;6516;35.028;32.372;2023-08-30T00:00:13;18.65;;;10.82;;
12896;SDS011;6516;35.028;32.372;2023-08-30T00:02:42;18.07;;;10.90;;
12896;SDS011;6516;35.028;32.372;2023-08-30T00:05:12;21.35;;;10.90;;
12896;SDS011;6516;35.028;32.372;2023-08-30T00:07:41;22.77;;;11.60;;
12896;SDS011;6516;35.028;32.372;2023-08-30T00:10:09;23.63;;;12.13;;
12896;SDS011;6516;35.028;32.372;2023-08-30T00:12:37;21.40;;;12.07;;
12896;SDS011;6516;35.028;32.372;2023-08-30T00:15:05;24.90;;;13.30;;
12896;SDS011;6516;35.028;32.372;2023-08-30T00:17:34;18.40;;;12.65;;
12896;SDS011;6516;35.028;32.372;2023-08-30T00:20:02;21.73;;;12.90;;
12896;SDS011;6516;35.028;32.372;2023-08-30T00:22:35;23.00;;;12.75;;
12896;SDS011;6516;35.028;32.372;2023-08-30T00:25:03;24.95;;;13.60;;
12896;SDS011;6516;35.028;32.372;2023-08-30T00:27:32;26.73;;;14.03;;
12896;SDS011;6516;35.028;32.372;2023-08-30T00:29:59;22.40;;;13.30;;
12896;SDS011;6516;35.028;32.372;2023-08-30T00:32:27;22.33;;;13.48;;
12896;SDS011;6516;35.028;32.372;2023-08-30T00:34:55;19.85;;;13.15;;
12896;SDS011;6516;35.028;32.372;2023-08-30T00:37:23;25.23;;;14.23;;
12896;SDS011;6516;35.028;32.372;2023-08-30T00:39:52;19.80;;;12.90;;
12896;SDS011;6516;35.028;32.372;2023-08-30T00:42:20;20.77;;;13.20;;
12896;SDS011;6516;35.028;32.372;2023-08-30T00:44:48;25.10;;;12.95;;
12896;SDS011;6516;35.028;32.372;2023-08-30T00:47:16;24.23;;;13.23;;
12896;SDS011;6516;35.028;32.372;2023-08-30T00:49:43;27.70;;;13.40;;
12896;SDS011;6516;35.028;32.372;2023-08-30T00:52:11;20.17;;;12.60;;
12896;SDS011;6516;35.028;32.372;2023-08-30T00:54:39;22.80;;;13.18;;
12896;SDS011;6516;35.028;32.372;2023-08-30T00:57:09;19.58;;;12.63;;
12896;SDS011;6516;35.028;32.372;2023-08-30T00:59:37;18.75;;;12.30;;
12896;SDS011;6516;35.028;32.372;2023-08-30T01:02:05;18.85;;;12.00;;
12896;SDS011;6516;35.028;32.372;2023-08-30T01:04:33;21.43;;;12.40;;
12896;SDS011;6516;35.028;32.372;2023-08-30T01:07:01;21.80;;;11.68;;
12896;SDS011;6516;35.028;32.372;2023-08-30T01:09:29;22.33;;;12.15;;
12896;SDS011;6516;35.028;32.372;2023-08-30T01:11:59;22.63;;;12.48;;
12896;SDS011;6516;35.028;32.372;2023-08-30T01:14:38;22.33;;;11.50;;
12896;SDS011;6516;35.028;32.372;2023-08-30T01:17:12;24.90;;;12.43;;
12896;SDS011;6516;35.028;32.372;2023-08-30T01:19:46;23.17;;;12.30;;
12896;SDS011;6516;35.028;32.372;2023-08-30T01:22:26;25.88;;;11.95;;
12896;SDS011;6516;35.028;32.372;2023-08-30T01:25:09;19.52;;;11.55;;
12896;SDS011;6516;35.028;32.372;2023-08-30T01:27:48;21.83;;;12.20;;
12896;SDS011;6516;35.028;32.372;2023-08-30T01:30:19;18.43;;;11.30;;
12896;SDS011;6516;35.028;32.372;2023-08-30T01:32:48;23.35;;;12.40;;
12896;SDS011;6516;35.028;32.372;2023-08-30T01:35:16;24.50;;;11.95;;
12896;SDS011;6516;35.028;32.372;2023-08-30T01:37:45;21.30;;;11.48;;
12896;SDS011;6516;35.028;32.372;2023-08-30T01:40:13;21.15;;;11.88;;
12896;SDS011;6516;35.028;32.372;2023-08-30T01:42:43;20.27;;;10.77;;
12896;SDS011;6516;35.028;32.372;2023-08-30T01:45:13;20.35;;;11.20;;
12896;SDS011;6516;35.028;32.372;2023-08-30T01:47:42;19.92;;;11.82;;
12896;SDS011;6516;35.028;32.372;2023-08-30T01:50:12;20.17;;;11.38;;
12896;SDS011;6516;35.028;32.372;2023-08-30T01:52:39;23.77;;;11.65;;
12896;SDS011;6516;35.028;32.372;2023-08-30T01:55:08;22.97;;;11.40;;
12896;SDS011;6516;35.028;32.372;2023-08-30T01:57:38;21.42;;;10.93;;
12896;SDS011;6516;35.028;32.372;2023-08-30T02:00:06;22.27;;;11.02;;
12896;SDS011;6516;35.028;32.372;2023-08-30T02:02:37;16.88;;;9.98;;
12896;SDS011;6516;35.028;32.372;2023-08-30T02:05:05;19.45;;;10.23;;
12896;SDS011;6516;35.028;32.372;2023-08-30T02:07:35;14.93;;;9.70;;
12896;SDS011;6516;35.028;32.372;2023-08-30T02:10:15;16.10;;;10.07;;
12896;SDS011;6516;35.028;32.372;2023-08-30T02:12:49;16.95;;;10.35;;
12896;SDS011;6516;35.028;32.372;2023-08-30T02:15:21;14.75;;;10.13;;
12896;SDS011;6516;35.028;32.372;2023-08-30T02:17:52;20.33;;;10.63;;
12896;SDS011;6516;35.028;32.372;2023-08-30T02:20:20;20.30;;;10.63;;
12896;SDS011;6516;35.028;32.372;2023-08-30T02:22:49;21.75;;;10.77;;
12896;SDS011;6516;35.028;32.372;2023-08-30T02:25:17;19.63;;;9.68;;
12896;SDS011;6516;35.028;32.372;2023-08-30T02:27:49;19.55;;;10.25;;
12896;SDS011;6516;35.028;32.372;2023-08-30T02:30:17;17.60;;;10.45;;
12896;SDS011;6516;35.028;32.372;2023-08-30T02:32:45;18.73;;;9.67;;
12896;SDS011;6516;35.028;32.372;2023-08-30T02:35:14;18.92;;;10.07;;
12896;SDS011;6516;35.028;32.372;2023-08-30T02:37:42;14.32;;;9.75;;
12896;SDS011;6516;35.028;32.372;2023-08-30T02:40:10;17.25;;;9.85;;
12896;SDS011;6516;35.028;32.372;2023-08-30T02:42:38;17.45;;;9.55;;
12896;SDS011;6516;35.028;32.372;2023-08-30T02:45:06;13.37;;;9.17;;
12896;SDS011;6516;35.028;32.372;2023-08-30T02:47:36;17.08;;;8.60;;
12896;SDS011;6516;35.028;32.372;2023-08-30T02:50:04;15.70;;;8.27;;
12896;SDS011;6516;35.028;32.372;2023-08-30T02:52:33;11.30;;;7.72;;
12896;SDS011;6516;35.028;32.372;2023-08-30T02:55:01;12.82;;;6.38;;
12896;SDS011;6516;35.028;32.372;2023-08-30T02:57:29;11.13;;;6.50;;
12896;SDS011;6516;35.028;32.372;2023-08-30T02:59:57;12.93;;;6.43;;
12896;SDS011;6516;35.028;32.372;2023-08-30T03:02:25;13.80;;;6.45;;
12896;SDS011;6516;35.028;32.372;2023-08-30T03:04:54;11.15;;;6.10;;
12896;SDS011;6516;35.028;32.372;2023-08-30T03:07:21;10.98;;;6.43;;
12896;SDS011;6516;35.028;32.372;2023-08-30T03:09:53;9.10;;;5.23;;
12896;SDS011;6516;35.028;32.372;2023-08-30T03:12:21;9.55;;;5.50;;
12896;SDS011;6516;35.028;32.372;2023-08-30T03:14:48;11.85;;;5.95;;
12896;SDS011;6516;35.028;32.372;2023-08-30T03:17:16;12.25;;;5.00;;
12896;SDS011;6516;35.028;32.372;2023-08-30T03:19:44;10.20;;;5.90;;
12896;SDS011;6516;35.028;32.372;2023-08-30T03:22:12;8.73;;;5.23;;
12896;SDS011;6516;35.028;32.372;2023-08-30T03:24:39;12.30;;;5.93;;
12896;SDS011;6516;35.028;32.372;2023-08-30T03:27:09;10.68;;;5.28;;
12896;SDS011;6516;35.028;32.372;2023-08-30T03:29:36;11.65;;;5.63;;
12896;SDS011;6516;35.028;32.372;2023-08-30T03:32:05;12.00;;;5.53;;
12896;SDS011;6516;35.028;32.372;2023-08-30T03:34:32;10.93;;;5.83;;
12896;SDS011;6516;35.028;32.372;2023-08-30T03:37:00;13.85;;;6.20;;
12896;SDS011;6516;35.028;32.372;2023-08-30T03:39:28;13.73;;;6.25;;
12896;SDS011;6516;35.028;32.372;2023-08-30T03:41:56;12.93;;;6.30;;
12896;SDS011;6516;35.028;32.372;2023-08-30T03:44:26;12.32;;;6.65;;
12896;SDS011;6516;35.028;32.372;2023-08-30T03:46:53;13.33;;;6.27;;
12896;SDS011;6516;35.028;32.372;2023-08-30T03:49:22;19.02;;;6.70;;
12896;SDS011;6516;35.028;32.372;2023-08-30T03:51:50;13.35;;;7.00;;
12896;SDS011;6516;35.028;32.372;2023-08-30T03:54:17;13.85;;;6.90;;
12896;SDS011;6516;35.028;32.372;2023-08-30T03:56:45;16.48;;;6.90;;
12896;SDS011;6516;35.028;32.372;2023-08-30T03:59:13;16.23;;;6.90;;
12896;SDS011;6516;35.028;32.372;2023-08-30T04:01:42;16.52;;;7.30;;
12896;SDS011;6516;35.028;32.372;2023-08-30T04:04:11;17.77;;;7.03;;
12896;SDS011;6516;35.028;32.372;2023-08-30T04:06:39;17.52;;;6.47;;
12896;SDS011;6516;35.028;32.372;2023-08-30T04:09:07;14.13;;;6.90;;
12896;SDS011;6516;35.028;32.372;2023-08-30T04:11:35;14.73;;;6.47;;
12896;SDS011;6516;35.028;32.372;2023-08-30T04:14:03;10.93;;;6.38;;
12896;SDS011;6516;35.028;32.372;2023-08-30T04:16:31;14.45;;;7.10;;
12896;SDS011;6516;35.028;32.372;2023-08-30T04:19:00;16.50;;;6.45;;
12896;SDS011;6516;35.028;32.372;2023-08-30T04:21:28;14.15;;;6.97;;
12896;SDS011;6516;35.028;32.372;2023-08-30T04:23:55;15.97;;;6.77;;
12896;SDS011;6516;35.028;32.372;2023-08-30T04:26:23;17.73;;;7.00;;
12896;SDS011;6516;35.028;32.372;2023-08-30T04:28:51;14.27;;;6.75;;
12896;SDS011;6516;35.028;32.372;2023-08-30T04:31:19;13.57;;;7.15;;
12896;SDS011;6516;35.028;32.372;2023-08-30T04:33:47;17.38;;;6.85;;
12896;SDS011;6516;35.028;32.372;2023-08-30T04:36:16;12.60;;;7.10;;
12896;SDS011;6516;35.028;32.372;2023-08-30T04:38:44;15.82;;;7.03;;
12896;SDS011;6516;35.028;32.372;2023-08-30T04:41:11;14.90;;;7.03;;
12896;SDS011;6516;35.028;32.372;2023-08-30T04:43:39;16.70;;;6.82;;
12896;SDS011;6516;35.028;32.372;2023-08-30T04:46:07;12.15;;;6.60;;
12896;SDS011;6516;35.028;32.372;2023-08-30T04:48:35;15.83;;;6.47;;
12896;SDS011;6516;35.028;32.372;2023-08-30T04:51:04;11.82;;;6.70;;
12896;SDS011;6516;35.028;32.372;2023-08-30T04:53:33;16.25;;;6.75;;
12896;SDS011;6516;35.028;32.372;2023-08-30T04:56:09;15.30;;;6.47;;
12896;SDS011;6516;35.028;32.372;2023-08-30T04:58:38;12.80;;;6.20;;
12896;SDS011;6516;35.028;32.372;2023-08-30T05:01:06;16.23;;;6.37;;
12896;SDS011;6516;35.028;32.372;2023-08-30T05:03:34;12.70;;;5.88;;
12896;SDS011;6516;35.028;32.372;2023-08-30T05:06:02;14.60;;;6.10;;
12896;SDS011;6516;35.028;32.372;2023-08-30T05:08:30;13.75;;;6.07;;
12896;SDS011;6516;35.028;32.372;2023-08-30T05:10:59;12.80;;;6.15;;
12896;SDS011;6516;35.028;32.372;2023-08-30T05:13:28;10.17;;;5.20;;
12896;SDS011;6516;35.028;32.372;2023-08-30T05:15:56;9.93;;;4.88;;
12896;SDS011;6516;35.028;32.372;2023-08-30T05:18:23;7.72;;;4.35;;
12896;SDS011;6516;35.028;32.372;2023-08-30T05:20:51;8.10;;;4.25;;
12896;SDS011;6516;35.028;32.372;2023-08-30T05:23:19;9.43;;;4.70;;
12896;SDS011;6516;35.028;32.372;2023-08-30T05:25:48;8.97;;;4.60;;
12896;SDS011;6516;35.028;32.372;2023-08-30T05:28:16;9.00;;;4.38;;
12896;SDS011;6516;35.028;32.372;2023-08-30T05:30:44;8.93;;;4.03;;
12896;SDS011;6516;35.028;32.372;2023-08-30T05:33:12;8.55;;;4.00;;
12896;SDS011;6516;35.028;32.372;2023-08-30T05:35:39;7.45;;;4.00;;
12896;SDS011;6516;35.028;32.372;2023-08-30T05:38:08;7.50;;;4.03;;
12896;SDS011;6516;35.028;32.372;2023-08-30T05:40:36;8.45;;;4.22;;
12896;SDS011;6516;35.028;32.372;2023-08-30T05:43:09;7.35;;;4.05;;
12896;SDS011;6516;35.028;32.372;2023-08-30T05:45:37;8.45;;;4.35;;
12896;SDS011;6516;35.028;32.372;2023-08-30T05:48:05;8.50;;;4.32;;
12896;SDS011;6516;35.028;32.372;2023-08-30T05:50:33;8.53;;;4.50;;
12896;SDS011;6516;35.028;32.372;2023-08-30T05:53:01;9.73;;;4.35;;
12896;SDS011;6516;35.028;32.372;2023-08-30T05:55:30;12.93;;;4.50;;
12896;SDS011;6516;35.028;32.372;2023-08-30T05:57:58;19.05;;;5.13;;
12896;SDS011;6516;35.028;32.372;2023-08-30T06:00:27;7.63;;;4.30;;
12896;SDS011;6516;35.028;32.372;2023-08-30T06:02:55;9.33;;;4.30;;
12896;SDS011;6516;35.028;32.372;2023-08-30T06:05:23;9.18;;;4.32;;
12896;SDS011;6516;35.028;32.372;2023-08-30T06:07:51;9.02;;;4.35;;
12896;SDS011;6516;35.028;32.372;2023-08-30T06:10:19;10.90;;;4.25;;
12896;SDS011;6516;35.028;32.372;2023-08-30T06:12:47;11.38;;;5.07;;
12896;SDS011;6516;35.028;32.372;2023-08-30T06:15:15;10.90;;;4.17;;
12896;SDS011;6516;35.028;32.372;2023-08-30T06:17:44;12.68;;;5.40;;
12896;SDS011;6516;35.028;32.372;2023-08-30T06:20:12;10.05;;;5.18;;
12896;SDS011;6516;35.028;32.372;2023-08-30T06:22:40;14.45;;;5.70;;
12896;SDS011;6516;35.028;32.372;2023-08-30T06:25:08;11.55;;;5.93;;
12896;SDS011;6516;35.028;32.372;2023-08-30T06:27:41;13.60;;;5.83;;
12896;SDS011;6516;35.028;32.372;2023-08-30T06:30:21;13.32;;;5.43;;
12896;SDS011;6516;35.028;32.372;2023-08-30T06:32:50;16.95;;;5.32;;
12896;SDS011;6516;35.028;32.372;2023-08-30T06:35:18;15.15;;;6.45;;
12896;SDS011;6516;35.028;32.372;2023-08-30T06:37:46;21.65;;;6.80;;
12896;SDS011;6516;35.028;32.372;2023-08-30T06:40:14;22.07;;;7.27;;
12896;SDS011;6516;35.028;32.372;2023-08-30T06:42:42;23.10;;;7.68;;
12896;SDS011;6516;35.028;32.372;2023-08-30T06:45:10;11.77;;;6.00;;
12896;SDS011;6516;35.028;32.372;2023-08-30T06:47:38;30.40;;;7.32;;
12896;SDS011;6516;35.028;32.372;2023-08-30T06:50:08;36.75;;;8.57;;
12896;SDS011;6516;35.028;32.372;2023-08-30T06:52:36;24.67;;;7.63;;
12896;SDS011;6516;35.028;32.372;2023-08-30T06:55:04;24.88;;;7.72;;
12896;SDS011;6516;35.028;32.372;2023-08-30T06:57:32;20.08;;;7.20;;
12896;SDS011;6516;35.028;32.372;2023-08-30T07:00:00;18.00;;;7.28;;
12896;SDS011;6516;35.028;32.372;2023-08-30T07:02:33;22.38;;;7.30;;
12896;SDS011;6516;35.028;32.372;2023-08-30T07:05:03;23.63;;;7.47;;
12896;SDS011;6516;35.028;32.372;2023-08-30T07:07:34;20.00;;;6.90;;
12896;SDS011;6516;35.028;32.372;2023-08-30T07:10:02;23.63;;;7.15;;
12896;SDS011;6516;35.028;32.372;2023-08-30T07:12:30;22.42;;;8.05;;
12896;SDS011;6516;35.028;32.372;2023-08-30T07:14:58;20.50;;;7.55;;
12896;SDS011;6516;35.028;32.372;2023-08-30T07:17:26;21.93;;;7.47;;
12896;SDS011;6516;35.028;32.372;2023-08-30T07:19:53;18.30;;;7.45;;
12896;SDS011;6516;35.028;32.372;2023-08-30T07:22:21;14.38;;;6.63;;
12896;SDS011;6516;35.028;32.372;2023-08-30T07:24:50;15.15;;;7.10;;
12896;SDS011;6516;35.028;32.372;2023-08-30T07:27:18;18.52;;;7.30;;
12896;SDS011;6516;35.028;32.372;2023-08-30T07:29:47;14.60;;;7.07;;
12896;SDS011;6516;35.028;32.372;2023-08-30T07:32:14;14.57;;;6.45;;
12896;SDS011;6516;35.028;32.372;2023-08-30T07:34:42;18.33;;;7.40;;
12896;SDS011;6516;35.028;32.372;2023-08-30T07:37:17;15.60;;;7.13;;
12896;SDS011;6516;35.028;32.372;2023-08-30T07:39:46;15.15;;;7.18;;
12896;SDS011;6516;35.028;32.372;2023-08-30T07:42:15;14.63;;;6.80;;
12896;SDS011;6516;35.028;32.372;2023-08-30T07:44:43;16.60;;;7.13;;
12896;SDS011;6516;35.028;32.372;2023-08-30T07:47:11;16.45;;;7.90;;
12896;SDS011;6516;35.028;32.372;2023-08-30T07:49:38;18.85;;;7.85;;
12896;SDS011;6516;35.028;32.372;2023-08-30T07:52:07;17.25;;;7.57;;
12896;SDS011;6516;35.028;32.372;2023-08-30T07:54:36;18.50;;;8.00;;
12896;SDS011;6516;35.028;32.372;2023-08-30T07:57:06;16.63;;;8.23;;
12896;SDS011;6516;35.028;32.372;2023-08-30T07:59:36;15.82;;;7.78;;
12896;SDS011;6516;35.028;32.372;2023-08-30T08:02:05;15.60;;;7.95;;
12896;SDS011;6516;35.028;32.372;2023-08-30T08:04:33;19.55;;;8.38;;
12896;SDS011;6516;35.028;32.372;2023-08-30T08:07:01;15.03;;;7.67;;
12896;SDS011;6516;35.028;32.372;2023-08-30T08:09:30;16.60;;;8.30;;
12896;SDS011;6516;35.028;32.372;2023-08-30T08:11:59;17.83;;;7.88;;
12896;SDS011;6516;35.028;32.372;2023-08-30T08:14:27;19.90;;;8.57;;
12896;SDS011;6516;35.028;32.372;2023-08-30T08:16:56;16.88;;;7.97;;
12896;SDS011;6516;35.028;32.372;2023-08-30T08:19:24;14.33;;;8.40;;
12896;SDS011;6516;35.028;32.372;2023-08-30T08:21:52;15.45;;;7.75;;
12896;SDS011;6516;35.028;32.372;2023-08-30T08:24:20;15.52;;;8.18;;
12896;SDS011;6516;35.028;32.372;2023-08-30T08:26:48;19.95;;;8.13;;
12896;SDS011;6516;35.028;32.372;2023-08-30T08:29:16;14.52;;;8.07;;
12896;SDS011;6516;35.028;32.372;2023-08-30T08:31:44;13.90;;;7.87;;
12896;SDS011;6516;35.028;32.372;2023-08-30T08:34:13;20.92;;;8.18;;
12896;SDS011;6516;35.028;32.372;2023-08-30T08:36:42;19.55;;;8.43;;
12896;SDS011;6516;35.028;32.372;2023-08-30T08:39:10;18.85;;;8.75;;
12896;SDS011;6516;35.028;32.372;2023-08-30T08:41:40;18.65;;;8.57;;
12896;SDS011;6516;35.028;32.372;2023-08-30T08:44:08;14.40;;;7.97;;
12896;SDS011;6516;35.028;32.372;2023-08-30T08:46:37;15.65;;;7.65;;
12896;SDS011;6516;35.028;32.372;2023-08-30T08:49:08;14.00;;;7.57;;
12896;SDS011;6516;35.028;32.372;2023-08-30T08:51:40;16.40;;;8.15;;
12896;SDS011;6516;35.028;32.372;2023-08-30T08:54:09;25.45;;;8.80;;
12896;SDS011;6516;35.028;32.372;2023-08-30T08:56:38;17.73;;;8.40;;
12896;SDS011;6516;35.028;32.372;2023-08-30T08:59:06;16.33;;;8.32;;
12896;SDS011;6516;35.028;32.372;2023-08-30T09:01:34;23.23;;;8.25;;
12896;SDS011;6516;35.028;32.372;2023-08-30T09:04:04;15.80;;;9.38;;
12896;SDS011;6516;35.028;32.372;2023-08-30T09:06:33;15.57;;;8.82;;
12896;SDS011;6516;35.028;32.372;2023-08-30T09:09:03;15.47;;;8.27;;
12896;SDS011;6516;35.028;32.372;2023-08-30T09:11:33;19.15;;;8.43;;
12896;SDS011;6516;35.028;32.372;2023-08-30T09:14:01;18.10;;;9.70;;
12896;SDS011;6516;35.028;32.372;2023-08-30T09:16:29;18.30;;;10.77;;
12896;SDS011;6516;35.028;32.372;2023-08-30T09:18:57;21.02;;;8.38;;
12896;SDS011;6516;35.028;32.372;2023-08-30T09:21:26;21.97;;;6.80;;
12896;SDS011;6516;35.028;32.372;2023-08-30T09:23:58;10.43;;;5.25;;
12896;SDS011;6516;35.028;32.372;2023-08-30T09:26:29;11.48;;;5.93;;
12896;SDS011;6516;35.028;32.372;2023-08-30T09:29:02;15.63;;;6.45;;
12896;SDS011;6516;35.028;32.372;2023-08-30T09:31:33;12.10;;;6.10;;
12896;SDS011;6516;35.028;32.372;2023-08-30T09:34:02;13.37;;;6.70;;
12896;SDS011;6516;35.028;32.372;2023-08-30T09:36:33;14.25;;;6.10;;
12896;SDS011;6516;35.028;32.372;2023-08-30T09:39:05;13.65;;;6.43;;
12896;SDS011;6516;35.028;32.372;2023-08-30T09:41:36;11.43;;;6.75;;
12896;SDS011;6516;35.028;32.372;2023-08-30T09:44:09;12.23;;;6.10;;
12896;SDS011;6516;35.028;32.372;2023-08-30T09:46:40;10.97;;;6.40;;
12896;SDS011;6516;35.028;32.372;2023-08-30T09:49:09;12.40;;;7.03;;
12896;SDS011;6516;35.028;32.372;2023-08-30T09:51:38;11.15;;;7.07;;
12896;SDS011;6516;35.028;32.372;2023-08-30T09:54:10;27.15;;;7.45;;
12896;SDS011;6516;35.028;32.372;2023-08-30T09:56:44;14.50;;;7.97;;
12896;SDS011;6516;35.028;32.372;2023-08-30T09:59:13;17.27;;;8.40;;
12896;SDS011;6516;35.028;32.372;2023-08-30T10:01:42;14.73;;;8.80;;
12896;SDS011;6516;35.028;32.372;2023-08-30T10:04:10;14.00;;;7.35;;
12896;SDS011;6516;35.028;32.372;2023-08-30T10:06:38;16.70;;;8.70;;
12896;SDS011;6516;35.028;32.372;2023-08-30T10:09:07;16.75;;;7.15;;
12896;SDS011;6516;35.028;32.372;2023-08-30T10:11:36;17.07;;;8.23;;
12896;SDS011;6516;35.028;32.372;2023-08-30T10:14:06;15.30;;;6.82;;
12896;SDS011;6516;35.028;32.372;2023-08-30T10:16:37;13.15;;;6.70;;
12896;SDS011;6516;35.028;32.372;2023-08-30T10:19:11;14.95;;;6.40;;
12896;SDS011;6516;35.028;32.372;2023-08-30T10:21:43;12.05;;;6.57;;
12896;SDS011;6516;35.028;32.372;2023-08-30T10:24:11;10.30;;;5.60;;
12896;SDS011;6516;35.028;32.372;2023-08-30T10:26:43;17.52;;;6.50;;
12896;SDS011;6516;35.028;32.372;2023-08-30T10:29:17;13.05;;;6.30;;
12896;SDS011;6516;35.028;32.372;2023-08-30T10:31:51;12.05;;;6.70;;
12896;SDS011;6516;35.028;32.372;2023-08-30T10:34:19;13.77;;;6.75;;
12896;SDS011;6516;35.028;32.372;2023-08-30T10:36:55;15.07;;;7.33;;
12896;SDS011;6516;35.028;32.372;2023-08-30T10:39:32;16.05;;;7.25;;
12896;SDS011;6516;35.028;32.372;2023-08-30T10:42:06;17.73;;;8.38;;
12896;SDS011;6516;35.028;32.372;2023-08-30T10:44:47;21.05;;;9.02;;
12896;SDS011;6516;35.028;32.372;2023-08-30T10:47:19;14.77;;;8.63;;
12896;SDS011;6516;35.028;32.372;2023-08-30T10:49:53;17.97;;;8.17;;
12896;SDS011;6516;35.028;32.372;2023-08-30T10:52:21;24.77;;;8.55;;
12896;SDS011;6516;35.028;32.372;2023-08-30T10:54:49;20.40;;;7.63;;
12896;SDS011;6516;35.028;32.372;2023-08-30T10:57:18;23.25;;;7.55;;
12896;SDS011;6516;35.028;32.372;2023-08-30T11:00:08;39.50;;;8.63;;
12896;SDS011;6516;35.028;32.372;2023-08-30T11:02:42;18.67;;;8.37;;
12896;SDS011;6516;35.028;32.372;2023-08-30T11:05:12;19.42;;;9.00;;
12896;SDS011;6516;35.028;32.372;2023-08-30T11:07:40;12.52;;;6.22;;
12896;SDS011;6516;35.028;32.372;2023-08-30T11:10:08;21.23;;;7.85;;
12896;SDS011;6516;35.028;32.372;2023-08-30T11:12:36;19.58;;;7.65;;
12896;SDS011;6516;35.028;32.372;2023-08-30T11:15:09;14.53;;;6.60;;
12896;SDS011;6516;35.028;32.372;2023-08-30T11:17:38;12.00;;;6.72;;
12896;SDS011;6516;35.028;32.372;2023-08-30T11:20:06;12.95;;;6.43;;
12896;SDS011;6516;35.028;32.372;2023-08-30T11:22:36;15.43;;;6.43;;
12896;SDS011;6516;35.028;32.372;2023-08-30T11:25:05;110.25;;;10.25;;
12896;SDS011;6516;35.028;32.372;2023-08-30T11:27:35;12.90;;;5.73;;
12896;SDS011;6516;35.028;32.372;2023-08-30T11:30:03;13.65;;;5.43;;
12896;SDS011;6516;35.028;32.372;2023-08-30T11:32:35;14.48;;;6.47;;
12896;SDS011;6516;35.028;32.372;2023-08-30T11:35:04;9.93;;;5.78;;
12896;SDS011;6516;35.028;32.372;2023-08-30T11:37:33;13.90;;;6.63;;
12896;SDS011;6516;35.028;32.372;2023-08-30T11:40:02;14.17;;;6.77;;
12896;SDS011;6516;35.028;32.372;2023-08-30T11:42:31;13.00;;;6.97;;
12896;SDS011;6516;35.028;32.372;2023-08-30T11:44:59;17.73;;;7.53;;
12896;SDS011;6516;35.028;32.372;2023-08-30T11:47:29;16.67;;;7.57;;
12896;SDS011;6516;35.028;32.372;2023-08-30T11:49:58;15.23;;;7.70;;
12896;SDS011;6516;35.028;32.372;2023-08-30T11:52:27;15.43;;;7.80;;
12896;SDS011;6516;35.028;32.372;2023-08-30T11:54:56;29.80;;;8.07;;
12896;SDS011;6516;35.028;32.372;2023-08-30T11:57:24;25.73;;;8.13;;
12896;SDS011;6516;35.028;32.372;2023-08-30T11:59:53;34.00;;;9.07;;
12896;SDS011;6516;35.028;32.372;2023-08-30T12:02:21;17.08;;;8.38;;
12896;SDS011;6516;35.028;32.372;2023-08-30T12:04:49;49.77;;;9.20;;
12896;SDS011;6516;35.028;32.372;2023-08-30T12:07:23;17.15;;;9.27;;
12896;SDS011;6516;35.028;32.372;2023-08-30T12:09:52;35.33;;;9.40;;
12896;SDS011;6516;35.028;32.372;2023-08-30T12:12:30;24.13;;;9.88;;
12896;SDS011;6516;35.028;32.372;2023-08-30T12:14:58;19.42;;;9.10;;
12896;SDS011;6516;35.028;32.372;2023-08-30T12:17:26;22.77;;;9.00;;
12896;SDS011;6516;35.028;32.372;2023-08-30T12:19:57;18.20;;;10.10;;
12896;SDS011;6516;35.028;32.372;2023-08-30T12:22:36;16.80;;;9.77;;
12896;SDS011;6516;35.028;32.372;2023-08-30T12:25:15;16.05;;;9.30;;
12896;SDS011;6516;35.028;32.372;2023-08-30T12:27:44;19.30;;;9.30;;
12896;SDS011;6516;35.028;32.372;2023-08-30T12:30:12;14.93;;;9.23;;
12896;SDS011;6516;35.028;32.372;2023-08-30T12:32:41;22.08;;;10.32;;
12896;SDS011;6516;35.028;32.372;2023-08-30T12:35:10;19.35;;;9.68;;
12896;SDS011;6516;35.028;32.372;2023-08-30T12:37:39;15.77;;;9.57;;
12896;SDS011;6516;35.028;32.372;2023-08-30T12:40:07;17.00;;;10.00;;
12896;SDS011;6516;35.028;32.372;2023-08-30T12:42:36;13.37;;;8.23;;
12896;SDS011;6516;35.028;32.372;2023-08-30T12:45:05;24.20;;;8.90;;
12896;SDS011;6516;35.028;32.372;2023-08-30T12:47:34;18.08;;;8.10;;
12896;SDS011;6516;35.028;32.372;2023-08-30T12:50:01;15.68;;;7.88;;
12896;SDS011;6516;35.028;32.372;2023-08-30T12:52:29;12.75;;;7.68;;
12896;SDS011;6516;35.028;32.372;2023-08-30T12:55:00;17.30;;;8.60;;
12896;SDS011;6516;35.028;32.372;2023-08-30T12:57:29;15.00;;;8.15;;
12896;SDS011;6516;35.028;32.372;2023-08-30T12:59:56;12.43;;;7.82;;
12896;SDS011;6516;35.028;32.372;2023-08-30T13:02:24;14.82;;;8.90;;
12896;SDS011;6516;35.028;32.372;2023-08-30T13:04:52;13.68;;;7.72;;
12896;SDS011;6516;35.028;32.372;2023-08-30T13:07:20;12.93;;;7.70;;
12896;SDS011;6516;35.028;32.372;2023-08-30T13:09:49;19.95;;;8.55;;
12896;SDS011;6516;35.028;32.372;2023-08-30T13:12:19;17.33;;;8.57;;
12896;SDS011;6516;35.028;32.372;2023-08-30T13:14:46;14.07;;;8.38;;
12896;SDS011;6516;35.028;32.372;2023-08-30T13:17:14;15.20;;;7.78;;
12896;SDS011;6516;35.028;32.372;2023-08-30T13:19:42;19.00;;;8.60;;
12896;SDS011;6516;35.028;32.372;2023-08-30T13:22:10;11.90;;;8.60;;
12896;SDS011;6516;35.028;32.372;2023-08-30T13:24:38;22.25;;;10.10;;
12896;SDS011;6516;35.028;32.372;2023-08-30T13:27:06;13.98;;;9.27;;
12896;SDS011;6516;35.028;32.372;2023-08-30T13:29:35;18.15;;;9.77;;
12896;SDS011;6516;35.028;32.372;2023-08-30T13:32:03;18.20;;;9.33;;
12896;SDS011;6516;35.028;32.372;2023-08-30T13:34:32;13.63;;;9.30;;
12896;SDS011;6516;35.028;32.372;2023-08-30T13:37:00;15.95;;;9.90;;
12896;SDS011;6516;35.028;32.372;2023-08-30T13:39:29;24.38;;;10.13;;
12896;SDS011;6516;35.028;32.372;2023-08-30T13:41:57;16.05;;;10.15;;
12896;SDS011;6516;35.028;32.372;2023-08-30T13:44:25;18.67;;;10.13;;
12896;SDS011;6516;35.028;32.372;2023-08-30T13:46:54;16.83;;;11.07;;
12896;SDS011;6516;35.028;32.372;2023-08-30T13:49:22;15.98;;;10.40;;
12896;SDS011;6516;35.028;32.372;2023-08-30T13:51:52;20.90;;;11.00;;
12896;SDS011;6516;35.028;32.372;2023-08-30T13:54:20;16.38;;;10.48;;
12896;SDS011;6516;35.028;32.372;2023-08-30T13:56:48;17.73;;;10.90;;
12896;SDS011;6516;35.028;32.372;2023-08-30T13:59:16;15.52;;;9.85;;
12896;SDS011;6516;35.028;32.372;2023-08-30T14:01:44;19.65;;;10.88;;
12896;SDS011;6516;35.028;32.372;2023-08-30T14:04:13;16.40;;;10.98;;
12896;SDS011;6516;35.028;32.372;2023-08-30T14:06:40;15.75;;;10.60;;
12896;SDS011;6516;35.028;32.372;2023-08-30T14:09:08;16.70;;;10.10;;
12896;SDS011;6516;35.028;32.372;2023-08-30T14:11:36;16.10;;;11.30;;
12896;SDS011;6516;35.028;32.372;2023-08-30T14:14:04;17.58;;;11.40;;
12896;SDS011;6516;35.028;32.372;2023-08-30T14:16:32;16.35;;;10.63;;
12896;SDS011;6516;35.028;32.372;2023-08-30T14:19:01;18.95;;;10.60;;
12896;SDS011;6516;35.028;32.372;2023-08-30T14:21:32;15.50;;;10.93;;
12896;SDS011;6516;35.028;32.372;2023-08-30T14:24:00;16.77;;;10.80;;
12896;SDS011;6516;35.028;32.372;2023-08-30T14:26:28;14.25;;;9.95;;
12896;SDS011;6516;35.028;32.372;2023-08-30T14:28:56;15.68;;;10.50;;
12896;SDS011;6516;35.028;32.372;2023-08-30T14:31:23;17.05;;;10.63;;
12896;SDS011;6516;35.028;32.372;2023-08-30T14:33:54;17.40;;;10.67;;
12896;SDS011;6516;35.028;32.372;2023-08-30T14:36:22;17.15;;;11.35;;
12896;SDS011;6516;35.028;32.372;2023-08-30T14:38:52;15.38;;;11.02;;
12896;SDS011;6516;35.028;32.372;2023-08-30T14:41:20;14.73;;;10.65;;